Aeroporto :







RITROVATECI SU...

 
LOGIN :

Iscrizione | Disclaimer

   EN    FR    IT 

 









Sommario :    VFR   VFR Marginale   IFR   IFR Intensivo   IFR Molto Intensivo
Visibilità : 
Base nubi : 
>= 8 km
>= 3000ft
5 / 8 km
1000 / 3000 ft
1500m / 5 km
500 / 1000 ft
800 / 1500m
200 / 500 ft
< 800m
< 200 ft
Simboli :   Temporali  Nebbia  Neve Forte  Precipitazioni Forti  Vento > 20 kt






- Altitudine del aeroporto : 192 ft
- Codice IATA : BGR


KBGR - Bangor International

ULTIMO METAR :
  • 281853Z 18012KT 10SM SCT100 SCT120 BKN200 26/17 A3003 RMK AO2 SLP166 T02610172

METARs OBSOLETI :
  • 281753Z COR 18012KT 10SM SCT090 BKN120 BKN200 25/18 A3005 RMK AO2 SLP171 T02500178 10256 20172 58015
  • 281653Z 18009KT 10SM FEW090 SCT120 BKN200 24/17 A3006 RMK AO2 SLP177 T02390172

TAF KBGR
Valido dal 28 a 18 ore il 29 a 18 ore UTC


281738Z 2818/2918 19009KT P6SM SCT090
FM290500 20008KT P6SM BKN025 WS020/24040KT
FM290900 19009KT 4SM BR BKN005 WS020/24040KT
FM291500 19013KT P6SM BKN025
FIR KZBW / America del Nord



MetMap, La meteo Aeronautica in un colpo d'occhio ! - Copyright ORBIFLY Dicembre 2007 - Disclaimer

ORBIFLY MET'MAP TEAM :

Programmazione e sviluppo : Alexandra Zaïnal
Concezione : Baudouin d'Aumeries
Aiuto per la programmazione : Marc-Olivier Méhu
Supporto tecnico e logistico : Manuel Goepfert
Aiuto per la traduzione : Arnaldo La Scala

Contatto : metmap@orbifly.com




FONTI E CREDITI :

   NOAA